Bakersfield, California
Current Conditions -  °F | °C
As of 4:54 AM on Tuesday 21 Oct 2014 (Local Time) from KBFL Reporting Station
Overcast Overcast  
Wind Chill: 16°   Ceiling: 4700
Heat Index: 16°   Visibility: 10mi
Dew Point:   Wind: 8mph
Humidity: 62%   Direction: 300°WNW
Pressure: 30.03"   Gusts: NA
Location:  35.37°N, 119.01°W
Report Text: KBFL 211154Z AUTO 30007KT 10SM OVC047 16/09 A3003 RMK AO2 SLP164 T01610089 10189 20161 58002
Loading
Personal Weather Stations






























Interactive Weather Map
Tropical Storm Tracking
New forecast layout! Learn more

10-Day Weather Forecast

Advertisements
Track Severe Weather on mobile